Marina — SXJE — position and weather

sailwx.info

Track history (hours):
 
Tides and Currents Weather Stations Pressure Air Temp Water Temp Dewpoint Dewpoint Depression Visibility Wind Speed Wind Dir Waves Ship Positions

Marina

Last reported at 2014-Jul-25 20:33 UTC. Time now 2014-Jul-25 20:45 UTC.
Position N 60°11' E 027°58'.

Length 225 m; draft 14.1 m.

Type: Cargo ship. MMSI: 239651000.

Date/timePositionNaut miles runAvg speedWind from/ knotsBaromVisibWave heightAir tempDewpointWater temp
2014-Jul-25 20:33N 60°11' E 027°58'32 3.2
2014-Jul-25 10:20N 59°41' E 028°25'0 0.0
2014-Jul-25 09:32N 59°41' E 028°25'0 0.0
2014-Jul-25 07:08N 59°41' E 028°25'0 0.0
2014-Jul-25 05:26N 59°41' E 028°25'0 0.0
2014-Jul-25 04:32N 59°41' E 028°25'0 0.0
2014-Jul-25 03:32N 59°41' E 028°25'0 0.0
2014-Jul-24 09:26N 59°41' E 028°25'0 0.0
2014-Jul-24 08:32N 59°41' E 028°25'0 0.0
2014-Jul-24 06:20N 59°41' E 028°25'0 0.0
2014-Jul-24 05:23N 59°41' E 028°25'0 0.0
2014-Jul-24 04:26N 59°41' E 028°25'0 0.0
2014-Jul-24 03:32N 59°41' E 028°25'31 2.4
2014-Jul-23 14:26N 60°09' E 027°59'1213.7
2014-Jul-23 13:33N 60°08' E 027°35'1514.6
2014-Jul-23 12:31N 59°60' E 027°09'1313.8
2014-Jul-23 11:33N 59°59' E 026°43'1414.2
2014-Jul-23 10:33N 59°56' E 026°15'1514.4
2014-Jul-23 09:30N 59°52' E 025°46'1814.4
2014-Jul-23 08:15N 59°48' E 025°11'2414.4
2014-Jul-23 06:33N 59°43' E 024°23'1414.2
2014-Jul-23 05:33N 59°39' E 023°56'1413.8
2014-Jul-23 04:31N 59°34' E 023°30'1314.1
2014-Jul-23 03:34N 59°30' E 023°05'1414.0
2014-Jul-23 02:33N 59°25' E 022°39'1413.9
2014-Jul-23 01:33N 59°17' E 022°17'1414.0
2014-Jul-23 00:33N 59°08' E 021°55'1414.0
2014-Jul-22 23:33N 58°57' E 021°37'1414.0
2014-Jul-22 22:33N 58°46' E 021°22'1414.1
2014-Jul-22 21:33N 58°34' E 021°07'1414.2
2014-Jul-22 20:33N 58°22' E 020°52'1414.1
2014-Jul-22 19:33N 58°11' E 020°37'1414.1
2014-Jul-22 18:33N 57°59' E 020°21'1714.0
2014-Jul-22 17:22N 57°44' E 020°08'1114.1
2014-Jul-22 16:34N 57°34' E 020°00'1414.1
2014-Jul-22 15:34N 57°21' E 019°50'1414.1
2014-Jul-22 14:34N 57°08' E 019°38'1413.9
2014-Jul-22 13:33N 56°56' E 019°26'1413.9
2014-Jul-22 12:34N 56°44' E 019°14'1413.8
2014-Jul-22 11:34N 56°32' E 019°01'1413.7
2014-Jul-22 10:34N 56°19' E 018°51'1413.9
2014-Jul-22 09:33N 56°12' E 018°30'1414.0
2014-Jul-22 08:33N 56°05' E 018°08'1414.3
2014-Jul-22 07:34N 55°57' E 017°47'1414.2
2014-Jul-22 06:33N 55°53' E 017°22'1414.4
2014-Jul-22 05:33N 55°49' E 016°58'1414.2
2014-Jul-22 04:33N 55°46' E 016°33'1414.0
2014-Jul-22 03:33N 55°43' E 016°09'1414.0
2014-Jul-22 02:33N 55°39' E 015°45'1413.9
2014-Jul-22 01:34N 55°35' E 015°21'1414.0
2014-Jul-22 00:34N 55°30' E 014°58'1414.0
2014-Jul-21 23:33N 55°23' E 014°37'1413.9
2014-Jul-21 22:33N 55°12' E 014°21'1313.1
2014-Jul-21 21:34N 55°10' E 013°59'1414.0
2014-Jul-21 20:34N 55°11' E 013°34'414.3
2014-Jul-21 20:18N 55°11' E 013°28'1014.0
2014-Jul-21 19:33N 55°12' E 013°10'1414.1
2014-Jul-21 18:33N 55°16' E 012°46'1111.1
2014-Jul-21 17:33N 55°27' E 012°40'1010.5
2014-Jul-21 16:34N 55°37' E 012°42'1211.6
2014-Jul-21 15:34N 55°49' E 012°43'1313.0
2014-Jul-21 14:33N 56°01' E 012°38'9 8.8
2014-Jul-21 13:33N 56°08' E 012°28'1010.2
2014-Jul-21 12:34N 56°13' E 012°12'1212.4
2014-Jul-21 11:33N 56°24' E 012°01'1414.4
2014-Jul-21 10:33N 56°38' E 011°54'1414.1
2014-Jul-21 09:33N 56°52' E 011°47'1414.5
2014-Jul-21 08:33N 57°05' E 011°39'1414.2
2014-Jul-21 07:33N 57°19' E 011°30'1414.0
2014-Jul-21 06:33N 57°31' E 011°17'1414.4
2014-Jul-21 05:33N 57°41' E 010°58'1312.8
2014-Jul-21 04:34N 57°47' E 010°37'1414.3
2014-Jul-21 03:34N 57°47' E 010°10'1513.9
2014-Jul-21 02:27N 57°43' E 009°42'1314.3
2014-Jul-21 01:32N 57°39' E 009°19'23313.7
2014-Jul-20 08:27N 54°32' E 005°09'1414.2
2014-Jul-20 07:30N 54°20' E 004°59'1313.8
2014-Jul-20 06:33N 54°08' E 004°50'1313.4
2014-Jul-20 05:33N 53°56' E 004°37'5012.5
2014-Jul-20 01:33N 53°18' E 003°43'1212.1
2014-Jul-20 00:33N 53°07' E 003°37'5213.0
2014-Jul-19 20:33N 52°16' E 003°23'1413.8
2014-Jul-19 19:33N 52°06' E 003°40'1110.9
2014-Jul-19 18:33N 52°02' E 003°56'1111.0
2014-Jul-19 17:33N 51°57' E 004°12'5 4.6
2014-Jul-19 16:33N 51°53' E 004°17'1 0.5
2014-Jul-19 15:31N 51°54' E 004°16'0 0.0
2014-Jul-19 14:28N 51°54' E 004°16'0 0.0
2014-Jul-19 13:31N 51°54' E 004°16'0 0.0
2014-Jul-19 12:31N 51°54' E 004°16'0 0.0
2014-Jul-19 11:31N 51°54' E 004°16'0 0.0
2014-Jul-19 10:31N 51°54' E 004°16'0 0.0
2014-Jul-19 09:22N 51°54' E 004°16'0 0.0
2014-Jul-19 08:31N 51°54' E 004°16'0 0.0
2014-Jul-19 07:25N 51°54' E 004°16'0 0.0
2014-Jul-19 06:28N 51°54' E 004°16'0 0.0
2014-Jul-19 05:28N 51°54' E 004°16'0 0.0
2014-Jul-19 04:22N 51°54' E 004°16'0 0.0
2014-Jul-19 03:31N 51°54' E 004°16'0 0.0
2014-Jul-19 02:31N 51°54' E 004°16'0 0.0
2014-Jul-19 01:31N 51°54' E 004°16'0 0.0
2014-Jul-19 00:31N 51°54' E 004°16'0 0.0
2014-Jul-18 23:31N 51°54' E 004°16'0 0.0
2014-Jul-18 22:31N 51°54' E 004°16'0 0.0
2014-Jul-18 21:25N 51°54' E 004°16'0 0.0
2014-Jul-18 20:31N 51°54' E 004°16'0 0.0
2014-Jul-18 19:28N 51°54' E 004°16'0 0.0
2014-Jul-18 18:31N 51°54' E 004°16'0 0.0
2014-Jul-18 17:25N 51°54' E 004°16'0 0.0
2014-Jul-18 16:28N 51°54' E 004°16'0 0.0
2014-Jul-18 15:28N 51°54' E 004°16'0 0.0
2014-Jul-18 14:22N 51°54' E 004°16'0 0.0
2014-Jul-18 13:31N 51°54' E 004°16'0 0.0
2014-Jul-18 12:31N 51°54' E 004°16'0 0.0
2014-Jul-18 11:28N 51°54' E 004°16'0 0.0
2014-Jul-18 10:31N 51°54' E 004°16'0 0.0
2014-Jul-18 09:31N 51°54' E 004°16'0 0.0
2014-Jul-18 08:31N 51°54' E 004°16'0 0.0
2014-Jul-18 07:28N 51°54' E 004°16'0 0.0
2014-Jul-18 06:31N 51°54' E 004°16'0 0.0
2014-Jul-18 05:31N 51°54' E 004°16'0 0.0
2014-Jul-18 04:31N 51°54' E 004°16'0 0.0
2014-Jul-18 03:28N 51°54' E 004°16'0 0.0
2014-Jul-18 02:31N 51°54' E 004°16'0 0.0
2014-Jul-18 01:31N 51°54' E 004°16'0 0.0
2014-Jul-18 00:31N 51°54' E 004°16'0 0.0
2014-Jul-17 23:31N 51°54' E 004°16'0 0.0
2014-Jul-17 22:31N 51°54' E 004°16'0 0.0
2014-Jul-17 21:31N 51°54' E 004°16'0 0.0
2014-Jul-17 20:31N 51°54' E 004°16'0 0.0
2014-Jul-17 19:28N 51°54' E 004°16'0 0.0
2014-Jul-17 18:31N 51°54' E 004°16'0 0.0
2014-Jul-17 17:28N 51°54' E 004°16'0 0.0
2014-Jul-17 16:28N 51°54' E 004°16'0 0.0
2014-Jul-17 15:31N 51°54' E 004°16'0 0.0
2014-Jul-17 14:31N 51°54' E 004°16'0 0.0
2014-Jul-17 13:31N 51°54' E 004°16'0 0.0
2014-Jul-17 12:31N 51°54' E 004°16'0 0.0
2014-Jul-17 11:22N 51°54' E 004°16'0 0.0
2014-Jul-17 10:31N 51°54' E 004°16'0 0.0
2014-Jul-17 09:28N 51°54' E 004°16'0 0.0
2014-Jul-17 08:28N 51°54' E 004°16'0 0.0
2014-Jul-17 07:28N 51°54' E 004°16'0 0.0
2014-Jul-17 06:28N 51°54' E 004°16'0 0.0
2014-Jul-17 05:31N 51°54' E 004°16'0 0.0
2014-Jul-17 04:28N 51°54' E 004°16'0 0.0
2014-Jul-17 03:28N 51°54' E 004°16'0 0.0
2014-Jul-17 02:31N 51°54' E 004°16'0 0.0
2014-Jul-17 01:31N 51°54' E 004°16'0 0.0
2014-Jul-17 00:31N 51°54' E 004°16'0 0.0
2014-Jul-16 23:28N 51°54' E 004°16'0 0.0
2014-Jul-16 22:31N 51°54' E 004°16'0 0.0
2014-Jul-16 21:31N 51°54' E 004°16'0 0.0
2014-Jul-16 20:31N 51°54' E 004°16'0 0.0
2014-Jul-16 19:31N 51°54' E 004°16'0 0.0
2014-Jul-16 18:31N 51°54' E 004°16'0 0.0
2014-Jul-16 17:31N 51°54' E 004°16'0 0.0
2014-Jul-16 16:28N 51°54' E 004°16'0 0.0
2014-Jul-16 15:22N 51°54' E 004°16'0 0.0
2014-Jul-16 14:31N 51°54' E 004°16'0 0.0
2014-Jul-16 13:31N 51°54' E 004°16'0 0.0
2014-Jul-16 12:31N 51°54' E 004°16'0 0.0
2014-Jul-16 11:16N 51°54' E 004°16'0 0.0
2014-Jul-16 10:31N 51°54' E 004°16'0 0.0
2014-Jul-16 09:28N 51°54' E 004°16'0 0.0
2014-Jul-16 08:31N 51°54' E 004°16'0 0.0
2014-Jul-16 07:31N 51°54' E 004°16'0 0.0
2014-Jul-16 06:22N 51°54' E 004°16'0 0.0
2014-Jul-16 05:25N 51°54' E 004°16'0 0.0
2014-Jul-16 04:28N 51°54' E 004°16'0 0.0
2014-Jul-16 03:31N 51°54' E 004°16'0 0.0
2014-Jul-16 02:31N 51°54' E 004°16'0 0.0
2014-Jul-16 01:31N 51°54' E 004°16'0 0.0
2014-Jul-16 00:31N 51°54' E 004°16'0 0.0
2014-Jul-15 23:31N 51°54' E 004°16'0 0.0
2014-Jul-15 22:28N 51°54' E 004°16'0 0.0
2014-Jul-15 21:31N 51°54' E 004°16'  
Track history (hours):
 
Tides and Currents Weather Stations Pressure Air Temp Water Temp Dewpoint Dewpoint Depression Visibility Wind Speed Wind Dir Waves Ship Positions

Marina

Last reported at 2014-Jul-25 20:33 UTC. Time now 2014-Jul-25 20:45 UTC.
Position N 60°11' E 027°58'.

Length 225 m; draft 14.1 m.

Type: Cargo ship. MMSI: 239651000.

Date/timePositionNaut miles runAvg speedWind from/ knotsBaromVisibWave heightAir tempDewpointWater temp
2014-Jul-25 20:33N 60°11' E 027°58'32 3.2
2014-Jul-25 10:20N 59°41' E 028°25'0 0.0
2014-Jul-25 09:32N 59°41' E 028°25'0 0.0
2014-Jul-25 07:08N 59°41' E 028°25'0 0.0
2014-Jul-25 05:26N 59°41' E 028°25'0 0.0
2014-Jul-25 04:32N 59°41' E 028°25'0 0.0
2014-Jul-25 03:32N 59°41' E 028°25'0 0.0
2014-Jul-24 09:26N 59°41' E 028°25'0 0.0
2014-Jul-24 08:32N 59°41' E 028°25'0 0.0
2014-Jul-24 06:20N 59°41' E 028°25'0 0.0
2014-Jul-24 05:23N 59°41' E 028°25'0 0.0
2014-Jul-24 04:26N 59°41' E 028°25'0 0.0
2014-Jul-24 03:32N 59°41' E 028°25'31 2.4
2014-Jul-23 14:26N 60°09' E 027°59'1213.7
2014-Jul-23 13:33N 60°08' E 027°35'1514.6
2014-Jul-23 12:31N 59°60' E 027°09'1313.8
2014-Jul-23 11:33N 59°59' E 026°43'1414.2
2014-Jul-23 10:33N 59°56' E 026°15'1514.4
2014-Jul-23 09:30N 59°52' E 025°46'1814.4
2014-Jul-23 08:15N 59°48' E 025°11'2414.4
2014-Jul-23 06:33N 59°43' E 024°23'1414.2
2014-Jul-23 05:33N 59°39' E 023°56'1413.8
2014-Jul-23 04:31N 59°34' E 023°30'1314.1
2014-Jul-23 03:34N 59°30' E 023°05'1414.0
2014-Jul-23 02:33N 59°25' E 022°39'1413.9
2014-Jul-23 01:33N 59°17' E 022°17'1414.0
2014-Jul-23 00:33N 59°08' E 021°55'1414.0
2014-Jul-22 23:33N 58°57' E 021°37'1414.0
2014-Jul-22 22:33N 58°46' E 021°22'1414.1
2014-Jul-22 21:33N 58°34' E 021°07'1414.2
2014-Jul-22 20:33N 58°22' E 020°52'1414.1
2014-Jul-22 19:33N 58°11' E 020°37'1414.1
2014-Jul-22 18:33N 57°59' E 020°21'1714.0
2014-Jul-22 17:22N 57°44' E 020°08'1114.1
2014-Jul-22 16:34N 57°34' E 020°00'1414.1
2014-Jul-22 15:34N 57°21' E 019°50'1414.1
2014-Jul-22 14:34N 57°08' E 019°38'1413.9
2014-Jul-22 13:33N 56°56' E 019°26'1413.9
2014-Jul-22 12:34N 56°44' E 019°14'1413.8
2014-Jul-22 11:34N 56°32' E 019°01'1413.7
2014-Jul-22 10:34N 56°19' E 018°51'1413.9
2014-Jul-22 09:33N 56°12' E 018°30'1414.0
2014-Jul-22 08:33N 56°05' E 018°08'1414.3
2014-Jul-22 07:34N 55°57' E 017°47'1414.2
2014-Jul-22 06:33N 55°53' E 017°22'1414.4
2014-Jul-22 05:33N 55°49' E 016°58'1414.2
2014-Jul-22 04:33N 55°46' E 016°33'1414.0
2014-Jul-22 03:33N 55°43' E 016°09'1414.0
2014-Jul-22 02:33N 55°39' E 015°45'1413.9
2014-Jul-22 01:34N 55°35' E 015°21'1414.0
2014-Jul-22 00:34N 55°30' E 014°58'1414.0
2014-Jul-21 23:33N 55°23' E 014°37'1413.9
2014-Jul-21 22:33N 55°12' E 014°21'1313.1
2014-Jul-21 21:34N 55°10' E 013°59'1414.0
2014-Jul-21 20:34N 55°11' E 013°34'414.3
2014-Jul-21 20:18N 55°11' E 013°28'1014.0
2014-Jul-21 19:33N 55°12' E 013°10'1414.1
2014-Jul-21 18:33N 55°16' E 012°46'1111.1
2014-Jul-21 17:33N 55°27' E 012°40'1010.5
2014-Jul-21 16:34N 55°37' E 012°42'1211.6
2014-Jul-21 15:34N 55°49' E 012°43'1313.0
2014-Jul-21 14:33N 56°01' E 012°38'9 8.8
2014-Jul-21 13:33N 56°08' E 012°28'1010.2
2014-Jul-21 12:34N 56°13' E 012°12'1212.4
2014-Jul-21 11:33N 56°24' E 012°01'1414.4
2014-Jul-21 10:33N 56°38' E 011°54'1414.1
2014-Jul-21 09:33N 56°52' E 011°47'1414.5
2014-Jul-21 08:33N 57°05' E 011°39'1414.2
2014-Jul-21 07:33N 57°19' E 011°30'1414.0
2014-Jul-21 06:33N 57°31' E 011°17'1414.4
2014-Jul-21 05:33N 57°41' E 010°58'1312.8
2014-Jul-21 04:34N 57°47' E 010°37'1414.3
2014-Jul-21 03:34N 57°47' E 010°10'1513.9
2014-Jul-21 02:27N 57°43' E 009°42'1314.3
2014-Jul-21 01:32N 57°39' E 009°19'23313.7
2014-Jul-20 08:27N 54°32' E 005°09'1414.2
2014-Jul-20 07:30N 54°20' E 004°59'1313.8
2014-Jul-20 06:33N 54°08' E 004°50'1313.4
2014-Jul-20 05:33N 53°56' E 004°37'5012.5
2014-Jul-20 01:33N 53°18' E 003°43'1212.1
2014-Jul-20 00:33N 53°07' E 003°37'5213.0
2014-Jul-19 20:33N 52°16' E 003°23'1413.8
2014-Jul-19 19:33N 52°06' E 003°40'1110.9
2014-Jul-19 18:33N 52°02' E 003°56'1111.0
2014-Jul-19 17:33N 51°57' E 004°12'5 4.6
2014-Jul-19 16:33N 51°53' E 004°17'1 0.5
2014-Jul-19 15:31N 51°54' E 004°16'0 0.0
2014-Jul-19 14:28N 51°54' E 004°16'0 0.0
2014-Jul-19 13:31N 51°54' E 004°16'0 0.0
2014-Jul-19 12:31N 51°54' E 004°16'0 0.0
2014-Jul-19 11:31N 51°54' E 004°16'0 0.0
2014-Jul-19 10:31N 51°54' E 004°16'0 0.0
2014-Jul-19 09:22N 51°54' E 004°16'0 0.0
2014-Jul-19 08:31N 51°54' E 004°16'0 0.0
2014-Jul-19 07:25N 51°54' E 004°16'0 0.0
2014-Jul-19 06:28N 51°54' E 004°16'0 0.0
2014-Jul-19 05:28N 51°54' E 004°16'0 0.0
2014-Jul-19 04:22N 51°54' E 004°16'0 0.0
2014-Jul-19 03:31N 51°54' E 004°16'0 0.0
2014-Jul-19 02:31N 51°54' E 004°16'0 0.0
2014-Jul-19 01:31N 51°54' E 004°16'0 0.0
2014-Jul-19 00:31N 51°54' E 004°16'0 0.0
2014-Jul-18 23:31N 51°54' E 004°16'0 0.0
2014-Jul-18 22:31N 51°54' E 004°16'0 0.0
2014-Jul-18 21:25N 51°54' E 004°16'0 0.0
2014-Jul-18 20:31N 51°54' E 004°16'0 0.0
2014-Jul-18 19:28N 51°54' E 004°16'0 0.0
2014-Jul-18 18:31N 51°54' E 004°16'0 0.0
2014-Jul-18 17:25N 51°54' E 004°16'0 0.0
2014-Jul-18 16:28N 51°54' E 004°16'0 0.0
2014-Jul-18 15:28N 51°54' E 004°16'0 0.0
2014-Jul-18 14:22N 51°54' E 004°16'0 0.0
2014-Jul-18 13:31N 51°54' E 004°16'0 0.0
2014-Jul-18 12:31N 51°54' E 004°16'0 0.0
2014-Jul-18 11:28N 51°54' E 004°16'0 0.0
2014-Jul-18 10:31N 51°54' E 004°16'0 0.0
2014-Jul-18 09:31N 51°54' E 004°16'0 0.0
2014-Jul-18 08:31N 51°54' E 004°16'0 0.0
2014-Jul-18 07:28N 51°54' E 004°16'0 0.0
2014-Jul-18 06:31N 51°54' E 004°16'0 0.0
2014-Jul-18 05:31N 51°54' E 004°16'0 0.0
2014-Jul-18 04:31N 51°54' E 004°16'0 0.0
2014-Jul-18 03:28N 51°54' E 004°16'0 0.0
2014-Jul-18 02:31N 51°54' E 004°16'0 0.0
2014-Jul-18 01:31N 51°54' E 004°16'0 0.0
2014-Jul-18 00:31N 51°54' E 004°16'0 0.0
2014-Jul-17 23:31N 51°54' E 004°16'0 0.0
2014-Jul-17 22:31N 51°54' E 004°16'0 0.0
2014-Jul-17 21:31N 51°54' E 004°16'0 0.0
2014-Jul-17 20:31N 51°54' E 004°16'0 0.0
2014-Jul-17 19:28N 51°54' E 004°16'0 0.0
2014-Jul-17 18:31N 51°54' E 004°16'0 0.0
2014-Jul-17 17:28N 51°54' E 004°16'0 0.0
2014-Jul-17 16:28N 51°54' E 004°16'0 0.0
2014-Jul-17 15:31N 51°54' E 004°16'0 0.0
2014-Jul-17 14:31N 51°54' E 004°16'0 0.0
2014-Jul-17 13:31N 51°54' E 004°16'0 0.0
2014-Jul-17 12:31N 51°54' E 004°16'0 0.0
2014-Jul-17 11:22N 51°54' E 004°16'0 0.0
2014-Jul-17 10:31N 51°54' E 004°16'0 0.0
2014-Jul-17 09:28N 51°54' E 004°16'0 0.0
2014-Jul-17 08:28N 51°54' E 004°16'0 0.0
2014-Jul-17 07:28N 51°54' E 004°16'0 0.0
2014-Jul-17 06:28N 51°54' E 004°16'0 0.0
2014-Jul-17 05:31N 51°54' E 004°16'0 0.0
2014-Jul-17 04:28N 51°54' E 004°16'0 0.0
2014-Jul-17 03:28N 51°54' E 004°16'0 0.0
2014-Jul-17 02:31N 51°54' E 004°16'0 0.0
2014-Jul-17 01:31N 51°54' E 004°16'0 0.0
2014-Jul-17 00:31N 51°54' E 004°16'0 0.0
2014-Jul-16 23:28N 51°54' E 004°16'0 0.0
2014-Jul-16 22:31N 51°54' E 004°16'0 0.0
2014-Jul-16 21:31N 51°54' E 004°16'0 0.0
2014-Jul-16 20:31N 51°54' E 004°16'0 0.0
2014-Jul-16 19:31N 51°54' E 004°16'0 0.0
2014-Jul-16 18:31N 51°54' E 004°16'0 0.0
2014-Jul-16 17:31N 51°54' E 004°16'0 0.0
2014-Jul-16 16:28N 51°54' E 004°16'0 0.0
2014-Jul-16 15:22N 51°54' E 004°16'0 0.0
2014-Jul-16 14:31N 51°54' E 004°16'0 0.0
2014-Jul-16 13:31N 51°54' E 004°16'0 0.0
2014-Jul-16 12:31N 51°54' E 004°16'0 0.0
2014-Jul-16 11:16N 51°54' E 004°16'0 0.0
2014-Jul-16 10:31N 51°54' E 004°16'0 0.0
2014-Jul-16 09:28N 51°54' E 004°16'0 0.0
2014-Jul-16 08:31N 51°54' E 004°16'0 0.0
2014-Jul-16 07:31N 51°54' E 004°16'0 0.0
2014-Jul-16 06:22N 51°54' E 004°16'0 0.0
2014-Jul-16 05:25N 51°54' E 004°16'0 0.0
2014-Jul-16 04:28N 51°54' E 004°16'0 0.0
2014-Jul-16 03:31N 51°54' E 004°16'0 0.0
2014-Jul-16 02:31N 51°54' E 004°16'0 0.0
2014-Jul-16 01:31N 51°54' E 004°16'0 0.0
2014-Jul-16 00:31N 51°54' E 004°16'0 0.0
2014-Jul-15 23:31N 51°54' E 004°16'0 0.0
2014-Jul-15 22:28N 51°54' E 004°16'0 0.0
2014-Jul-15 21:31N 51°54' E 004°16'  

Dump ship's entire track history